^^
Grace C. Lehan Memorial Weather Station Historical Data
Daily Summary for July 3, 2022 Units:  Both    English   Metric
Daily Weekly Monthly Yearly
  High: Low: Average:
Temperature: 61.8 °F /  16.6 °C 57.9 °F /  14.4 °C 59.8 °F /  15.4 °C
Dew Point: 57.1 °F /  13.9 °C 55.6 °F /  13.1 °C 56.5 °F /  13.6 °C
Humidity: 92% 82.5% 89%
Wind Speed: 0mph /  0km/h - 0mph /  0km/h
Wind Gust: 0mph /  0km/h - -
Wind- -
Pressure: 30.26 in /  1024.6 hPa 30.25 in /  1024.3 hPa -
Precipitation: 0.00 in /  0 mm    
 
 
Tabular Data for July 3, 2022
Time Temperature Dew Point Pressure Wind Wind Speed Wind Gust Humidity Rainfall Rate (Hourly) solar
00:04 61.8 °F /  16.6 °C 56.4 °F /  13.6 °C 30.26in /  1024.6hPa Calm     82.5% 0.00in /  0mm 0 W/m2
00:09 61.7 °F /  16.5 °C 56.5 °F /  13.6 °C 30.26in /  1024.6hPa Calm     83% 0.00in /  0mm 0 W/m2
00:14 61.6 °F /  16.4 °C 56.4 °F /  13.6 °C 30.26in /  1024.6hPa Calm     83% 0.00in /  0mm 0 W/m2
00:19 61.5 °F /  16.4 °C 56.6 °F /  13.7 °C 30.26in /  1024.6hPa Calm     83.9% 0.00in /  0mm 0 W/m2
00:24 61.4 °F /  16.3 °C 56.5 °F /  13.6 °C 30.26in /  1024.6hPa Calm     84% 0.00in /  0mm 0 W/m2
00:29 61.3 °F /  16.3 °C 56.7 °F /  13.7 °C 30.26in /  1024.6hPa Calm     84.9% 0.00in /  0mm 0 W/m2
00:34 61.2 °F /  16.2 °C 56.7 °F /  13.7 °C 30.26in /  1024.6hPa Calm     85.2% 0.00in /  0mm 0 W/m2
00:39 61.1 °F /  16.2 °C 56.9 °F /  13.8 °C 30.26in /  1024.6hPa Calm     86% 0.00in /  0mm 0 W/m2
00:44 61 °F /  16.1 °C 56.8 °F /  13.8 °C 30.26in /  1024.6hPa Calm     86% 0.00in /  0mm 0 W/m2
00:49 60.9 °F /  16.1 °C 56.7 °F /  13.7 °C 30.26in /  1024.6hPa Calm     86% 0.00in /  0mm 0 W/m2
00:54 60.8 °F /  16 °C 56.7 °F /  13.7 °C 30.26in /  1024.6hPa Calm     86.4% 0.00in /  0mm 0 W/m2
00:59 60.7 °F /  15.9 °C 56.8 °F /  13.8 °C 30.26in /  1024.6hPa Calm     87% 0.00in /  0mm 0 W/m2
01:04 60.6 °F /  15.9 °C 56.7 °F /  13.7 °C 30.26in /  1024.6hPa Calm     87% 0.00in /  0mm 0 W/m2
01:09 60.4 °F /  15.8 °C 56.6 °F /  13.7 °C 30.26in /  1024.6hPa Calm     87% 0.00in /  0mm 0 W/m2
01:14 60.3 °F /  15.7 °C 56.4 °F /  13.6 °C 30.26in /  1024.6hPa Calm     87% 0.00in /  0mm 0 W/m2
01:19 60.2 °F /  15.7 °C 56.5 °F /  13.6 °C 30.26in /  1024.6hPa Calm     87.6% 0.00in /  0mm 0 W/m2
01:24 60.2 °F /  15.7 °C 56.7 °F /  13.7 °C 30.26in /  1024.6hPa Calm     88.1% 0.00in /  0mm 0 W/m2
01:29 60.2 °F /  15.7 °C 57 °F /  13.9 °C 30.26in /  1024.6hPa Calm     89% 0.00in /  0mm 0 W/m2
01:34 60.2 °F /  15.7 °C 56.9 °F /  13.8 °C 30.26in /  1024.6hPa Calm     89% 0.00in /  0mm 0 W/m2
01:39 60.1 °F /  15.6 °C 56.9 °F /  13.8 °C 30.26in /  1024.6hPa Calm     89% 0.00in /  0mm 0 W/m2
01:44 60.1 °F /  15.6 °C 57.1 °F /  13.9 °C 30.26in /  1024.6hPa Calm     89.8% 0.00in /  0mm 0 W/m2
01:49 60 °F /  15.6 °C 57.1 °F /  13.9 °C 30.26in /  1024.6hPa Calm     90% 0.00in /  0mm 0 W/m2
01:54 60 °F /  15.6 °C 57 °F /  13.9 °C 30.26in /  1024.6hPa Calm     90% 0.00in /  0mm 0 W/m2
01:59 59.9 °F /  15.5 °C 56.9 °F /  13.8 °C 30.26in /  1024.6hPa Calm     90% 0.00in /  0mm 0 W/m2
02:04 59.8 °F /  15.4 °C 56.9 °F /  13.8 °C 30.26in /  1024.6hPa Calm     90% 0.00in /  0mm 0 W/m2
02:09 59.7 °F /  15.4 °C 57 °F /  13.9 °C 30.26in /  1024.6hPa Calm     90.6% 0.00in /  0mm 0 W/m2
02:14 59.6 °F /  15.3 °C 56.7 °F /  13.7 °C 30.26in /  1024.6hPa Calm     90% 0.00in /  0mm 0 W/m2
02:19 59.6 °F /  15.3 °C 56.6 °F /  13.7 °C 30.26in /  1024.6hPa Calm     90% 0.00in /  0mm 0 W/m2
02:24 59.5 °F /  15.3 °C 56.6 °F /  13.7 °C 30.26in /  1024.6hPa Calm     90% 0.00in /  0mm 0 W/m2
02:29 59.4 °F /  15.2 °C 56.5 °F /  13.6 °C 30.26in /  1024.6hPa Calm     90% 0.00in /  0mm 0 W/m2
02:34 59.3 °F /  15.2 °C 56.3 °F /  13.5 °C 30.26in /  1024.6hPa Calm     90% 0.00in /  0mm 0 W/m2
02:39 59.2 °F /  15.1 °C 56.3 °F /  13.5 °C 30.26in /  1024.6hPa Calm     90.2% 0.00in /  0mm 0 W/m2
02:44 59.1 °F /  15.1 °C 56.4 °F /  13.6 °C 30.25in /  1024.3hPa Calm     90.7% 0.00in /  0mm 0 W/m2
02:49 59 °F /  15 °C 56.4 °F /  13.6 °C 30.25in /  1024.3hPa Calm     91% 0.00in /  0mm 0 W/m2
02:54 59 °F /  15 °C 56.4 °F /  13.6 °C 30.25in /  1024.3hPa Calm     91% 0.00in /  0mm 0 W/m2
02:59 59 °F /  15 °C 56.4 °F /  13.6 °C 30.26in /  1024.6hPa Calm     91% 0.00in /  0mm 0 W/m2
03:04 58.9 °F /  14.9 °C 56.3 °F /  13.5 °C 30.25in /  1024.3hPa Calm     91% 0.00in /  0mm 0 W/m2
03:09 58.8 °F /  14.9 °C 56.2 °F /  13.4 °C 30.26in /  1024.6hPa Calm     91% 0.00in /  0mm 0 W/m2
03:14 58.7 °F /  14.8 °C 56.1 °F /  13.4 °C 30.25in /  1024.3hPa Calm     91% 0.00in /  0mm 0 W/m2
03:19 58.6 °F /  14.8 °C 56 °F /  13.3 °C 30.25in /  1024.3hPa Calm     91% 0.00in /  0mm 0 W/m2
03:24 58.6 °F /  14.8 °C 56.2 °F /  13.4 °C 30.26in /  1024.6hPa Calm     91.7% 0.00in /  0mm 0 W/m2
03:29 58.5 °F /  14.7 °C 56.2 °F /  13.4 °C 30.26in /  1024.6hPa Calm     92% 0.00in /  0mm 0 W/m2
03:34 58.4 °F /  14.7 °C 56.1 °F /  13.4 °C 30.26in /  1024.6hPa Calm     92% 0.00in /  0mm 0 W/m2
03:39 58.3 °F /  14.6 °C 56 °F /  13.3 °C 30.26in /  1024.6hPa Calm     92% 0.00in /  0mm 0 W/m2
03:44 58.2 °F /  14.6 °C 55.9 °F /  13.3 °C 30.26in /  1024.6hPa Calm     92% 0.00in /  0mm 0 W/m2
03:49 58.1 °F /  14.5 °C 55.8 °F /  13.2 °C 30.26in /  1024.6hPa Calm     92% 0.00in /  0mm 0 W/m2
03:54 58 °F /  14.4 °C 55.7 °F /  13.2 °C 30.26in /  1024.6hPa Calm     92% 0.00in /  0mm 0 W/m2
03:58 57.9 °F /  14.4 °C 55.6 °F /  13.1 °C 30.26in /  1024.6hPa Calm     92% 0.00in /  0mm 0 W/m2
Hartford County Weather
Compliments of Weather Underground - 2 mb